Hocking — AEPB — position and weather

sailwx.info

Track history (hours):
 
Tides and Currents Weather Stations Pressure Air Temp Water Temp Dewpoint Dewpoint Depression Visibility Wind Speed Wind Dir Waves Ship Positions

Hocking

Last reported at 2018-Jan-12 12:44 UTC. Time now 2018-Jan-18 15:32 UTC.
Position N 40°41' W 074°04'.

Length 21 m; draft 1.8 m.

Type: Other ship. MMSI: 366999414.

Date/timePositionNaut miles runAvg speedWind from/ knotsBaromVisibWave heightAir tempDewpointWater temp
2018-Jan-12 12:44N 40°41' W 074°04'0 0.4
2018-Jan-12 12:30N 40°41' W 074°04'0 0.0
2018-Jan-11 20:59N 40°41' W 074°04'3 6.1
2018-Jan-11 20:30N 40°43' W 074°01'3 6.1
2018-Jan-11 20:00N 40°41' W 074°04'0 0.6
2018-Jan-11 19:30N 40°41' W 074°04'0 0.0
2018-Jan-11 19:00N 40°41' W 074°04'0 0.0
2018-Jan-11 18:30N 40°41' W 074°04'0 0.0
2018-Jan-11 17:57N 40°41' W 074°04'0 0.0
2018-Jan-11 17:30N 40°41' W 074°04'0 0.0
2018-Jan-11 17:00N 40°41' W 074°04'2 3.6
2018-Jan-11 16:30N 40°42' W 074°02'1 2.6
2018-Jan-11 16:00N 40°43' W 074°01'3 5.0
2018-Jan-11 15:30N 40°41' W 074°03'1 0.0
2018-Jan-09 17:46N 40°41' W 074°04'0 0.0
2018-Jan-09 17:30N 40°41' W 074°04'0 0.0
2018-Jan-09 16:41N 40°41' W 074°04'0 0.0
2018-Jan-09 16:13N 40°41' W 074°04'0 0.0
2018-Jan-09 16:00N 40°41' W 074°04'0 0.1
2018-Jan-09 15:30N 40°41' W 074°04'0 0.1
2018-Jan-09 14:59N 40°41' W 074°04'0 0.0
2018-Jan-09 14:30N 40°41' W 074°04'0 0.0
2018-Jan-09 14:00N 40°41' W 074°04'0 0.1
2018-Jan-09 13:30N 40°41' W 074°04'0 0.0
2018-Jan-09 13:00N 40°41' W 074°04'0 0.0
2018-Jan-08 19:46N 40°41' W 074°04'1 4.7
2018-Jan-08 19:30N 40°40' W 074°04'1 1.5
2018-Jan-08 18:57N 40°39' W 074°04'3 7.2
2018-Jan-08 18:30N 40°42' W 074°02'2 4.5
2018-Jan-08 18:00N 40°40' W 074°01'0 0.8
2018-Jan-08 17:30N 40°40' W 074°00'0 0.0
2018-Jan-08 17:00N 40°40' W 074°00'2 3.8
2018-Jan-08 16:30N 40°39' W 074°02'5 8.3
2018-Jan-08 15:57N 40°39' W 074°09'4 2.0
2018-Jan-08 14:08N 40°40' W 074°04'0 0.4
2018-Jan-08 13:57N 40°40' W 074°04'  
2018-Jan-03 19:39N 40°41' W 074°04'0 0.3
2018-Jan-03 19:30N 40°41' W 074°04'3 6.4
2018-Jan-03 19:00N 40°43' W 074°02'3 0.9
2018-Jan-03 15:18N 40°46' W 074°00'3 8.9
2018-Jan-03 15:00N 40°44' W 074°01'4 0.2
2018-Jan-02 19:25N 40°40' W 074°04'1 2.0
2018-Jan-02 19:00N 40°40' W 074°03'2 4.4
2018-Jan-02 18:30N 40°40' W 073°60'1 1.2
2018-Jan-02 18:00N 40°40' W 074°00'0 0.0
2018-Jan-02 17:30N 40°40' W 074°00'0 0.0
2018-Jan-02 17:00N 40°40' W 074°00'0 0.0
2018-Jan-02 16:30N 40°40' W 074°00'0 0.0
2018-Jan-02 16:00N 40°40' W 074°00'0 1.0
2018-Jan-02 15:30N 40°40' W 074°01'1 0.6
2018-Jan-02 14:11N 40°40' W 074°02'0 2.4
2018-Jan-02 14:00N 40°40' W 074°01'1 1.4
2018-Jan-02 13:30N 40°40' W 074°00'  
Track history (hours):
 
Tides and Currents Weather Stations Pressure Air Temp Water Temp Dewpoint Dewpoint Depression Visibility Wind Speed Wind Dir Waves Ship Positions

Hocking

Last reported at 2018-Jan-12 12:44 UTC. Time now 2018-Jan-18 15:32 UTC.
Position N 40°41' W 074°04'.

Length 21 m; draft 1.8 m.

Type: Other ship. MMSI: 366999414.

Date/timePositionNaut miles runAvg speedWind from/ knotsBaromVisibWave heightAir tempDewpointWater temp
2018-Jan-12 12:44N 40°41' W 074°04'0 0.4
2018-Jan-12 12:30N 40°41' W 074°04'0 0.0
2018-Jan-11 20:59N 40°41' W 074°04'3 6.1
2018-Jan-11 20:30N 40°43' W 074°01'3 6.1
2018-Jan-11 20:00N 40°41' W 074°04'0 0.6
2018-Jan-11 19:30N 40°41' W 074°04'0 0.0
2018-Jan-11 19:00N 40°41' W 074°04'0 0.0
2018-Jan-11 18:30N 40°41' W 074°04'0 0.0
2018-Jan-11 17:57N 40°41' W 074°04'0 0.0
2018-Jan-11 17:30N 40°41' W 074°04'0 0.0
2018-Jan-11 17:00N 40°41' W 074°04'2 3.6
2018-Jan-11 16:30N 40°42' W 074°02'1 2.6
2018-Jan-11 16:00N 40°43' W 074°01'3 5.0
2018-Jan-11 15:30N 40°41' W 074°03'1 0.0
2018-Jan-09 17:46N 40°41' W 074°04'0 0.0
2018-Jan-09 17:30N 40°41' W 074°04'0 0.0
2018-Jan-09 16:41N 40°41' W 074°04'0 0.0
2018-Jan-09 16:13N 40°41' W 074°04'0 0.0
2018-Jan-09 16:00N 40°41' W 074°04'0 0.1
2018-Jan-09 15:30N 40°41' W 074°04'0 0.1
2018-Jan-09 14:59N 40°41' W 074°04'0 0.0
2018-Jan-09 14:30N 40°41' W 074°04'0 0.0
2018-Jan-09 14:00N 40°41' W 074°04'0 0.1
2018-Jan-09 13:30N 40°41' W 074°04'0 0.0
2018-Jan-09 13:00N 40°41' W 074°04'0 0.0
2018-Jan-08 19:46N 40°41' W 074°04'1 4.7
2018-Jan-08 19:30N 40°40' W 074°04'1 1.5
2018-Jan-08 18:57N 40°39' W 074°04'3 7.2
2018-Jan-08 18:30N 40°42' W 074°02'2 4.5
2018-Jan-08 18:00N 40°40' W 074°01'0 0.8
2018-Jan-08 17:30N 40°40' W 074°00'0 0.0
2018-Jan-08 17:00N 40°40' W 074°00'2 3.8
2018-Jan-08 16:30N 40°39' W 074°02'5 8.3
2018-Jan-08 15:57N 40°39' W 074°09'4 2.0
2018-Jan-08 14:08N 40°40' W 074°04'0 0.4
2018-Jan-08 13:57N 40°40' W 074°04'  
2018-Jan-03 19:39N 40°41' W 074°04'0 0.3
2018-Jan-03 19:30N 40°41' W 074°04'3 6.4
2018-Jan-03 19:00N 40°43' W 074°02'3 0.9
2018-Jan-03 15:18N 40°46' W 074°00'3 8.9
2018-Jan-03 15:00N 40°44' W 074°01'4 0.2
2018-Jan-02 19:25N 40°40' W 074°04'1 2.0
2018-Jan-02 19:00N 40°40' W 074°03'2 4.4
2018-Jan-02 18:30N 40°40' W 073°60'1 1.2
2018-Jan-02 18:00N 40°40' W 074°00'0 0.0
2018-Jan-02 17:30N 40°40' W 074°00'0 0.0
2018-Jan-02 17:00N 40°40' W 074°00'0 0.0
2018-Jan-02 16:30N 40°40' W 074°00'0 0.0
2018-Jan-02 16:00N 40°40' W 074°00'0 1.0
2018-Jan-02 15:30N 40°40' W 074°01'1 0.6
2018-Jan-02 14:11N 40°40' W 074°02'0 2.4
2018-Jan-02 14:00N 40°40' W 074°01'1 1.4
2018-Jan-02 13:30N 40°40' W 074°00'  

Dump ship's entire track history